createdAt,value
2018-03-08T00:00:44.023Z,5.50
2018-03-08T00:03:11.762Z,5.50
2018-03-08T00:05:39.395Z,5.50
2018-03-08T00:08:07.282Z,5.50
2018-03-08T00:10:35.357Z,5.40
2018-03-08T00:13:02.999Z,5.40
2018-03-08T00:15:30.469Z,5.40
2018-03-08T00:17:58.346Z,5.30
2018-03-08T00:20:26.106Z,5.30
2018-03-08T00:22:53.573Z,5.40
2018-03-08T00:25:21.273Z,5.30
2018-03-08T00:27:48.973Z,5.40
2018-03-08T00:30:16.611Z,5.30
2018-03-08T00:32:44.190Z,5.40
2018-03-08T00:35:11.950Z,5.40
2018-03-08T00:37:39.722Z,5.40
2018-03-08T00:40:07.270Z,5.40
2018-03-08T00:42:34.948Z,5.30
2018-03-08T00:45:02.526Z,5.30
2018-03-08T00:47:30.287Z,5.20
2018-03-08T00:49:58.662Z,5.20
2018-03-08T00:52:26.358Z,5.20
2018-03-08T00:54:54.198Z,5.10
2018-03-08T00:57:21.966Z,5.10
2018-03-08T00:59:49.726Z,5.10
2018-03-08T01:02:17.197Z,5.10
2018-03-08T01:04:44.938Z,5.10
2018-03-08T01:07:12.415Z,5.10
2018-03-08T01:09:40.043Z,5.00
2018-03-08T01:12:07.809Z,5.00
2018-03-08T01:14:35.277Z,5.00
2018-03-08T01:17:03.140Z,5.00
2018-03-08T01:19:30.819Z,4.90
2018-03-08T01:21:58.669Z,5.00
2018-03-08T01:24:26.319Z,4.90
2018-03-08T01:26:53.777Z,4.90
2018-03-08T01:29:21.665Z,4.90
2018-03-08T01:34:22.109Z,4.80
2018-03-08T01:36:49.554Z,4.80
2018-03-08T01:39:17.645Z,4.80
2018-03-08T01:41:45.561Z,4.80
2018-03-08T01:44:14.081Z,4.70
2018-03-08T01:46:41.845Z,4.70
2018-03-08T01:49:09.964Z,4.70
2018-03-08T01:51:37.693Z,4.70
2018-03-08T01:54:05.328Z,4.70
2018-03-08T01:56:32.905Z,4.70
2018-03-08T01:59:00.679Z,4.60
2018-03-08T02:01:28.118Z,4.50
2018-03-08T02:03:55.578Z,4.50
2018-03-08T02:06:23.355Z,4.50
2018-03-08T02:08:50.993Z,4.50
2018-03-08T02:11:18.863Z,4.40
2018-03-08T02:13:46.647Z,4.40
2018-03-08T02:16:14.106Z,4.30
2018-03-08T02:18:41.870Z,4.30
2018-03-08T02:21:09.324Z,4.30
2018-03-08T02:23:36.950Z,4.30
2018-03-08T02:26:04.436Z,4.40
2018-03-08T02:28:32.310Z,4.40
2018-03-08T02:30:59.765Z,4.40
2018-03-08T02:33:27.206Z,4.30
2018-03-08T02:35:54.994Z,4.20
2018-03-08T02:38:22.655Z,4.10
2018-03-08T02:40:50.509Z,4.10
2018-03-08T02:43:18.159Z,4.10
2018-03-08T02:45:45.926Z,4.10
2018-03-08T02:48:13.507Z,3.90
2018-03-08T02:50:40.963Z,3.80
2018-03-08T02:53:09.035Z,3.70
2018-03-08T02:55:36.492Z,3.50
2018-03-08T02:58:03.967Z,3.40
2018-03-08T03:00:31.719Z,3.30
2018-03-08T03:02:59.356Z,3.30
2018-03-08T03:05:26.803Z,3.30
2018-03-08T03:07:54.270Z,3.30
2018-03-08T03:10:22.188Z,3.30
2018-03-08T03:12:49.792Z,3.30
2018-03-08T03:15:17.683Z,3.40
2018-03-08T03:17:45.372Z,3.40
2018-03-08T03:20:13.211Z,3.50
2018-03-08T03:22:40.851Z,3.50
2018-03-08T03:25:08.336Z,3.60
2018-03-08T03:27:35.791Z,3.60
2018-03-08T03:30:03.361Z,3.70
2018-03-08T03:32:31.111Z,3.70
2018-03-08T03:34:59.526Z,3.80
2018-03-08T03:37:27.134Z,3.80
2018-03-08T03:39:54.719Z,3.90
2018-03-08T03:42:22.475Z,3.90
2018-03-08T03:44:50.247Z,4.00
2018-03-08T03:47:18.151Z,4.00
2018-03-08T03:49:45.583Z,4.00
2018-03-08T03:52:13.131Z,4.00
2018-03-08T03:54:40.592Z,4.00
2018-03-08T03:57:08.035Z,4.00
2018-03-08T03:59:35.598Z,4.00
2018-03-08T04:02:03.378Z,4.10
2018-03-08T04:04:31.113Z,4.10
2018-03-08T04:06:58.760Z,4.10
2018-03-08T04:09:26.347Z,4.10
2018-03-08T04:11:54.602Z,4.10
2018-03-08T04:14:22.494Z,4.00
2018-03-08T04:16:50.039Z,4.00
2018-03-08T04:19:17.710Z,4.10
2018-03-08T04:21:45.831Z,4.10
2018-03-08T04:24:13.474Z,4.10
2018-03-08T04:26:41.687Z,4.20
2018-03-08T04:29:09.387Z,4.20
2018-03-08T04:31:36.835Z,4.20
2018-03-08T04:34:04.391Z,4.20
2018-03-08T04:36:32.373Z,4.10
2018-03-08T04:39:00.043Z,4.10
2018-03-08T04:41:27.541Z,4.10
2018-03-08T04:43:55.230Z,4.20
2018-03-08T04:46:22.679Z,4.20
2018-03-08T04:48:50.453Z,4.20
2018-03-08T04:51:18.030Z,4.20
2018-03-08T04:53:45.727Z,4.30
2018-03-08T04:56:13.463Z,4.20
2018-03-08T04:58:41.342Z,4.20
2018-03-08T05:01:08.885Z,4.20
2018-03-08T05:03:36.610Z,4.20
2018-03-08T05:06:04.189Z,4.20
2018-03-08T05:08:31.950Z,4.20
2018-03-08T05:10:59.403Z,4.30
2018-03-08T05:13:26.876Z,4.30
2018-03-08T05:15:54.318Z,4.30
2018-03-08T05:18:22.215Z,4.30
2018-03-08T05:20:49.659Z,4.30
2018-03-08T05:23:17.307Z,4.40
2018-03-08T05:25:45.380Z,4.30
2018-03-08T05:28:12.870Z,4.40
2018-03-08T05:30:40.330Z,4.40
2018-03-08T05:33:08.058Z,4.40
2018-03-08T05:35:35.814Z,4.40
2018-03-08T05:38:03.710Z,4.40
2018-03-08T05:40:31.475Z,4.40
2018-03-08T05:42:58.946Z,4.40
2018-03-08T05:45:26.700Z,4.30
2018-03-08T05:47:54.154Z,4.30
2018-03-08T05:50:21.794Z,4.30
2018-03-08T05:52:49.688Z,4.30
2018-03-08T05:55:17.331Z,4.30
2018-03-08T05:57:44.785Z,4.40
2018-03-08T06:00:12.235Z,4.30
2018-03-08T06:02:39.820Z,4.30
2018-03-08T06:05:07.592Z,4.30
2018-03-08T06:07:35.253Z,4.30
2018-03-08T06:10:04.034Z,4.30
2018-03-08T06:12:31.674Z,4.30
2018-03-08T06:14:59.750Z,4.30
2018-03-08T06:17:27.327Z,4.30
2018-03-08T06:19:55.104Z,4.20
2018-03-08T06:22:22.543Z,4.30
2018-03-08T06:24:50.319Z,4.20
2018-03-08T06:27:18.094Z,4.20
2018-03-08T06:29:45.538Z,4.20
2018-03-08T06:32:13.183Z,4.30
2018-03-08T06:34:40.755Z,4.30
2018-03-08T06:37:08.398Z,4.30
2018-03-08T06:39:35.891Z,4.20
2018-03-08T06:42:03.343Z,4.30
2018-03-08T06:44:31.507Z,4.30
2018-03-08T06:46:59.146Z,4.30
2018-03-08T06:49:26.726Z,4.40
2018-03-08T06:51:54.381Z,4.40
2018-03-08T06:54:21.851Z,4.40
2018-03-08T06:56:49.611Z,4.40
2018-03-08T06:59:17.483Z,4.40
2018-03-08T07:01:45.252Z,4.40
2018-03-08T07:04:12.706Z,4.40
2018-03-08T07:06:40.772Z,4.40
2018-03-08T07:09:08.534Z,4.40
2018-03-08T07:11:35.978Z,4.50
2018-03-08T07:14:03.631Z,4.60
2018-03-08T07:16:31.091Z,4.50
2018-03-08T07:18:58.855Z,4.50
2018-03-08T07:21:26.320Z,4.50
2018-03-08T07:23:53.816Z,4.50
2018-03-08T07:26:21.658Z,4.60
2018-03-08T07:28:49.243Z,4.60
2018-03-08T07:31:16.750Z,4.60
2018-03-08T07:33:44.339Z,4.60
2018-03-08T07:36:12.012Z,4.60
2018-03-08T07:38:39.747Z,4.60
2018-03-08T07:41:07.194Z,4.70
2018-03-08T07:43:35.043Z,4.80
2018-03-08T07:46:03.155Z,4.80
2018-03-08T07:48:31.117Z,4.90
2018-03-08T07:50:58.560Z,5.00
2018-03-08T07:53:26.477Z,5.00
2018-03-08T07:55:54.214Z,5.00
2018-03-08T07:58:21.659Z,5.30
2018-03-08T08:00:49.450Z,5.30
2018-03-08T08:03:17.203Z,5.60
2018-03-08T08:05:56.312Z,5.80
2018-03-08T08:08:35.555Z,6.00
2018-03-08T08:11:03.539Z,5.80
2018-03-08T08:13:31.250Z,6.00
2018-03-08T08:15:58.970Z,6.00
2018-03-08T08:18:26.635Z,6.20
2018-03-08T08:20:54.305Z,6.00
2018-03-08T08:23:21.731Z,6.10
2018-03-08T08:25:49.503Z,6.00
2018-03-08T08:28:17.187Z,5.90
2018-03-08T08:30:44.656Z,6.20
2018-03-08T08:33:12.104Z,6.20
2018-03-08T08:35:40.560Z,6.40
2018-03-08T08:38:08.328Z,6.40
2018-03-08T08:40:35.787Z,6.30
2018-03-08T08:43:03.551Z,6.30
2018-03-08T08:45:31.583Z,6.20
2018-03-08T08:47:59.079Z,6.40
2018-03-08T08:50:26.842Z,6.70
2018-03-08T08:52:55.095Z,6.90
2018-03-08T08:55:22.891Z,6.80
2018-03-08T08:57:50.748Z,7.00
2018-03-08T09:00:18.227Z,7.20
2018-03-08T09:05:36.139Z,8.50
2018-03-08T09:10:57.028Z,8.40
2018-03-08T09:13:25.520Z,8.60
2018-03-08T09:15:52.983Z,8.60
2018-03-08T09:18:20.740Z,8.30
2018-03-08T09:20:48.195Z,8.60
2018-03-08T09:23:16.295Z,8.30
2018-03-08T09:25:43.951Z,8.70
2018-03-08T09:28:11.418Z,9.00
2018-03-08T09:30:39.299Z,8.90
2018-03-08T09:33:07.063Z,8.80
2018-03-08T09:35:34.526Z,9.10
2018-03-08T09:38:02.062Z,9.40
2018-03-08T09:40:29.526Z,9.50
2018-03-08T09:42:57.192Z,9.50
2018-03-08T09:45:24.954Z,10.00
2018-03-08T09:47:53.059Z,10.70
2018-03-08T09:50:21.410Z,10.30
2018-03-08T09:52:48.864Z,10.30
2018-03-08T09:55:17.354Z,10.20
2018-03-08T09:57:45.323Z,9.50
2018-03-08T10:00:12.775Z,9.50
2018-03-08T10:02:40.852Z,9.90
2018-03-08T10:05:08.542Z,10.10
2018-03-08T10:07:36.143Z,10.10
2018-03-08T10:10:03.836Z,10.60
2018-03-08T10:12:31.499Z,10.50
2018-03-08T10:14:58.969Z,10.80
2018-03-08T10:17:26.428Z,11.00
2018-03-08T10:19:54.283Z,10.70
2018-03-08T10:22:21.919Z,11.10
2018-03-08T10:24:49.378Z,11.50
2018-03-08T10:27:16.864Z,11.30
2018-03-08T10:29:44.723Z,11.00
2018-03-08T10:32:12.491Z,11.00
2018-03-08T10:34:40.126Z,11.00
2018-03-08T10:37:07.885Z,10.80
2018-03-08T10:39:35.359Z,10.60
2018-03-08T10:42:02.928Z,10.40
2018-03-08T10:44:30.401Z,10.30
2018-03-08T10:46:58.069Z,10.40
2018-03-08T10:49:25.522Z,10.40
2018-03-08T10:51:52.996Z,10.50
2018-03-08T10:54:20.450Z,10.30
2018-03-08T10:56:48.292Z,10.20
2018-03-08T10:59:15.745Z,10.20
2018-03-08T11:01:44.117Z,10.20
2018-03-08T11:04:14.674Z,10.50
2018-03-08T11:06:42.377Z,10.70
2018-03-08T11:09:09.995Z,11.00
2018-03-08T11:11:37.640Z,11.30
2018-03-08T11:14:05.279Z,10.90
2018-03-08T11:16:33.163Z,10.30
2018-03-08T11:19:00.892Z,10.00
2018-03-08T11:21:28.570Z,9.70
2018-03-08T11:23:56.029Z,9.80
2018-03-08T11:26:23.607Z,10.10
2018-03-08T11:28:51.300Z,10.00
2018-03-08T11:31:18.767Z,9.70
2018-03-08T11:33:46.591Z,9.70
2018-03-08T11:36:14.664Z,9.60
2018-03-08T11:38:42.442Z,9.50
2018-03-08T11:41:10.067Z,9.50
2018-03-08T11:43:37.964Z,9.70
2018-03-08T11:46:06.646Z,10.00
2018-03-08T11:48:33.842Z,10.20
2018-03-08T11:51:00.818Z,10.10
2018-03-08T11:53:28.887Z,9.90
2018-03-08T11:55:56.470Z,9.80
2018-03-08T11:58:23.947Z,9.70
2018-03-08T12:00:51.691Z,9.50
2018-03-08T12:03:19.456Z,9.20
2018-03-08T12:05:46.915Z,9.20
2018-03-08T12:08:14.987Z,9.10
2018-03-08T12:10:42.622Z,9.20
2018-03-08T12:13:10.089Z,9.10
2018-03-08T12:15:37.971Z,9.10
2018-03-08T12:18:05.449Z,9.10
2018-03-08T12:20:34.480Z,9.00
2018-03-08T12:23:01.926Z,8.90
2018-03-08T12:25:29.822Z,8.80
2018-03-08T12:27:57.662Z,8.70
2018-03-08T12:30:25.127Z,8.70
2018-03-08T12:32:52.575Z,8.70
2018-03-08T12:35:20.239Z,8.70
2018-03-08T12:37:50.043Z,8.90
2018-03-08T12:40:17.632Z,8.90
2018-03-08T12:42:45.527Z,9.10
2018-03-08T12:45:13.291Z,9.20
2018-03-08T12:47:40.747Z,9.10
2018-03-08T12:50:08.515Z,9.30
2018-03-08T12:52:36.582Z,9.40
2018-03-08T12:55:04.042Z,9.50
2018-03-08T12:57:31.807Z,9.50
2018-03-08T12:59:59.983Z,9.40
2018-03-08T13:02:27.828Z,9.40
2018-03-08T13:04:55.313Z,9.40
2018-03-08T13:07:22.764Z,9.60
2018-03-08T13:09:50.315Z,9.90
2018-03-08T13:12:18.267Z,10.10
2018-03-08T13:14:45.983Z,10.10
2018-03-08T13:17:14.447Z,10.20
2018-03-08T13:19:41.860Z,10.20
2018-03-08T13:22:09.324Z,9.90
2018-03-08T13:24:37.827Z,9.40
2018-03-08T13:27:05.282Z,9.40
2018-03-08T13:29:32.946Z,9.40
2018-03-08T13:32:00.689Z,9.30
2018-03-08T13:34:28.183Z,9.40
2018-03-08T13:36:55.638Z,9.40
2018-03-08T13:39:23.495Z,9.30
2018-03-08T13:41:50.963Z,9.20
2018-03-08T13:44:18.888Z,9.10
2018-03-08T13:46:46.478Z,9.10
2018-03-08T13:49:25.666Z,9.10
2018-03-08T13:51:53.275Z,9.20
2018-03-08T13:54:21.141Z,9.10
2018-03-08T13:56:49.182Z,9.10
2018-03-08T13:59:16.847Z,9.10
2018-03-08T14:01:44.302Z,9.10
2018-03-08T14:04:12.195Z,9.10
2018-03-08T14:06:39.762Z,9.00
2018-03-08T14:09:07.290Z,8.90
2018-03-08T14:11:34.770Z,8.90
2018-03-08T14:14:02.240Z,8.80
2018-03-08T14:16:29.699Z,8.80
2018-03-08T14:18:57.546Z,8.60
2018-03-08T14:21:25.188Z,8.50
2018-03-08T14:23:52.948Z,8.30
2018-03-08T14:26:21.147Z,8.30
2018-03-08T14:28:48.915Z,8.20
2018-03-08T14:31:16.558Z,8.20
2018-03-08T14:33:44.447Z,8.20
2018-03-08T14:36:12.087Z,8.20
2018-03-08T14:38:39.757Z,8.10
2018-03-08T14:41:07.427Z,8.10
2018-03-08T14:43:35.503Z,8.00
2018-03-08T14:46:03.243Z,8.00
2018-03-08T14:48:30.903Z,7.80
2018-03-08T14:50:58.374Z,7.70
2018-03-08T14:53:25.854Z,7.70
2018-03-08T14:55:53.710Z,7.60
2018-03-08T14:58:21.471Z,7.60
2018-03-08T15:00:49.139Z,7.50
2018-03-08T15:03:16.603Z,7.40
2018-03-08T15:05:44.055Z,7.20
2018-03-08T15:08:11.789Z,7.20
2018-03-08T15:10:39.358Z,7.20
2018-03-08T15:13:07.017Z,7.20
2018-03-08T15:15:34.455Z,7.10
2018-03-08T15:18:02.043Z,7.10
2018-03-08T15:20:29.815Z,7.00
2018-03-08T15:22:57.419Z,7.00
2018-03-08T15:25:25.631Z,7.00
2018-03-08T15:27:53.719Z,7.00
2018-03-08T15:30:21.266Z,6.90
2018-03-08T15:32:49.030Z,6.90
2018-03-08T15:35:17.367Z,7.00
2018-03-08T15:37:44.957Z,6.90
2018-03-08T15:40:12.558Z,6.90
2018-03-08T15:42:40.019Z,6.90
2018-03-08T15:45:07.763Z,6.80
2018-03-08T15:47:35.527Z,6.90
2018-03-08T15:50:02.993Z,6.80
2018-03-08T15:52:30.434Z,6.80
2018-03-08T15:54:58.207Z,6.70
2018-03-08T15:57:25.971Z,6.70
2018-03-08T15:59:53.422Z,6.60
2018-03-08T16:02:25.681Z,6.60
2018-03-08T16:04:53.258Z,6.60
2018-03-08T16:20:47.938Z,6.40
2018-03-08T16:23:15.430Z,6.30
2018-03-08T16:25:43.255Z,6.20
2018-03-08T16:28:10.693Z,6.20
2018-03-08T16:30:38.387Z,6.10
2018-03-08T16:33:05.942Z,6.10
2018-03-08T16:35:34.014Z,6.10
2018-03-08T16:38:01.779Z,6.10
2018-03-08T16:40:29.851Z,6.10
2018-03-08T16:42:57.511Z,6.10
2018-03-08T16:45:25.254Z,6.10
2018-03-08T16:47:53.020Z,6.00
2018-03-08T16:50:23.752Z,6.00
2018-03-08T16:52:51.439Z,5.90
2018-03-08T16:55:19.199Z,5.90
2018-03-08T16:57:46.915Z,6.00
2018-03-08T17:00:14.352Z,5.90
2018-03-08T17:02:42.067Z,5.90
2018-03-08T17:05:09.546Z,5.90
2018-03-08T17:07:37.102Z,5.90
2018-03-08T17:10:04.870Z,5.80
2018-03-08T17:12:32.504Z,5.80
2018-03-08T17:15:00.390Z,5.80
2018-03-08T17:17:28.022Z,5.80
2018-03-08T17:19:55.867Z,5.80
2018-03-08T17:22:23.586Z,5.80
2018-03-08T17:24:51.342Z,5.80
2018-03-08T17:27:18.785Z,5.80
2018-03-08T17:29:46.455Z,5.80
2018-03-08T17:32:14.027Z,5.70
2018-03-08T17:34:41.895Z,5.70
2018-03-08T17:37:09.528Z,5.50
2018-03-08T17:39:37.027Z,3.60
2018-03-08T17:42:04.875Z,2.90
2018-03-08T17:44:32.948Z,2.80
2018-03-08T17:47:00.716Z,2.70
2018-03-08T17:49:28.387Z,2.70
2018-03-08T17:51:56.108Z,2.70
2018-03-08T17:54:23.575Z,2.80
2018-03-08T17:56:51.199Z,2.80
2018-03-08T17:59:18.800Z,2.90
2018-03-08T18:01:48.280Z,2.90
2018-03-08T18:04:16.155Z,2.90
2018-03-08T18:06:43.933Z,3.00
2018-03-08T18:09:11.699Z,3.10
2018-03-08T18:11:39.164Z,3.10
2018-03-08T18:14:06.905Z,3.10
2018-03-08T18:16:34.494Z,3.00
2018-03-08T18:19:02.446Z,3.00
2018-03-08T18:21:30.027Z,3.10
2018-03-08T18:23:57.505Z,3.10
2018-03-08T18:26:25.160Z,3.10
2018-03-08T18:28:52.620Z,3.10
2018-03-08T18:31:20.078Z,3.20
2018-03-08T18:33:47.804Z,3.20
2018-03-08T18:36:15.691Z,3.20
2018-03-08T18:41:16.626Z,3.10
2018-03-08T18:43:44.074Z,3.10
2018-03-08T18:46:12.155Z,3.20
2018-03-08T18:48:40.043Z,3.20
2018-03-08T18:51:07.503Z,3.10
2018-03-08T18:53:35.142Z,3.10
2018-03-08T18:56:02.634Z,3.00
2018-03-08T18:58:30.265Z,3.00
2018-03-08T19:00:57.695Z,3.00
2018-03-08T19:03:25.277Z,3.10
2018-03-08T19:05:52.794Z,3.10
2018-03-08T19:08:20.635Z,3.10
2018-03-08T19:10:48.694Z,3.00
2018-03-08T19:13:16.462Z,3.00
2018-03-08T19:15:44.223Z,3.10
2018-03-08T19:18:12.013Z,3.10
2018-03-08T19:20:39.754Z,3.10
2018-03-08T19:23:07.389Z,3.20
2018-03-08T19:25:35.155Z,3.30
2018-03-08T19:28:02.736Z,3.50
2018-03-08T19:30:30.682Z,3.70
2018-03-08T19:32:58.519Z,3.80
2018-03-08T19:35:26.172Z,3.90
2018-03-08T19:37:53.976Z,4.10
2018-03-08T19:40:21.554Z,4.20
2018-03-08T19:42:49.627Z,4.20
2018-03-08T19:45:17.698Z,4.30
2018-03-08T19:47:45.464Z,4.30
2018-03-08T19:50:13.235Z,4.20
2018-03-08T19:52:40.766Z,4.20
2018-03-08T19:55:08.511Z,4.20
2018-03-08T19:57:36.383Z,4.10
2018-03-08T20:00:03.823Z,4.00
2018-03-08T20:02:32.094Z,3.90
2018-03-08T20:04:59.821Z,3.90
2018-03-08T20:07:27.579Z,3.90
2018-03-08T20:09:55.258Z,3.90
2018-03-08T20:12:22.991Z,4.00
2018-03-08T20:14:50.566Z,4.00
2018-03-08T20:17:18.200Z,4.00
2018-03-08T20:19:45.970Z,3.90
2018-03-08T20:22:13.551Z,4.00
2018-03-08T20:24:41.315Z,4.00
2018-03-08T20:27:08.766Z,4.10
2018-03-08T20:29:36.230Z,4.10
2018-03-08T20:32:03.691Z,4.10
2018-03-08T20:34:31.514Z,4.20
2018-03-08T20:36:59.234Z,4.30
2018-03-08T20:39:26.978Z,4.30
2018-03-08T20:41:54.619Z,4.30
2018-03-08T20:44:22.066Z,4.30
2018-03-08T20:46:49.659Z,4.30
2018-03-08T20:49:17.395Z,4.30
2018-03-08T20:51:45.190Z,4.30
2018-03-08T20:54:13.133Z,4.30
2018-03-08T20:56:40.823Z,4.30
2018-03-08T20:59:08.791Z,4.30
2018-03-08T21:01:36.428Z,4.40
2018-03-08T21:04:04.003Z,4.30
2018-03-08T21:06:31.774Z,4.40
2018-03-08T21:08:59.227Z,4.40
2018-03-08T21:11:27.299Z,4.50
2018-03-08T21:13:55.062Z,4.50
2018-03-08T21:16:22.522Z,4.50
2018-03-08T21:18:50.595Z,4.50
2018-03-08T21:21:18.326Z,4.50
2018-03-08T21:23:46.005Z,4.40
2018-03-08T21:26:13.863Z,4.40
2018-03-08T21:28:41.599Z,4.40
2018-03-08T21:31:09.042Z,4.30
2018-03-08T21:33:36.803Z,4.30
2018-03-08T21:36:04.331Z,4.30
2018-03-08T21:38:32.103Z,4.30
2018-03-08T21:41:00.167Z,4.20
2018-03-08T21:43:27.793Z,4.20
2018-03-08T21:45:55.386Z,4.10
2018-03-08T21:48:22.826Z,4.10
2018-03-08T21:50:50.609Z,4.10
2018-03-08T21:53:18.658Z,4.10
2018-03-08T21:55:46.313Z,4.10
2018-03-08T21:58:13.846Z,4.10
2018-03-08T22:00:41.704Z,4.10
2018-03-08T22:03:09.743Z,4.10
2018-03-08T22:05:37.182Z,4.10
2018-03-08T22:08:04.635Z,4.10
2018-03-08T22:10:32.308Z,4.10
2018-03-08T22:13:00.183Z,4.00
2018-03-08T22:15:27.854Z,4.10
2018-03-08T22:17:55.720Z,4.00
2018-03-08T22:20:23.166Z,4.00
2018-03-08T22:22:50.817Z,4.10
2018-03-08T22:25:18.258Z,4.10
2018-03-08T22:27:46.460Z,4.00
2018-03-08T22:30:14.088Z,4.00
2018-03-08T22:32:41.983Z,4.00
2018-03-08T22:35:10.059Z,4.00
2018-03-08T22:37:37.927Z,4.00
2018-03-08T22:42:38.575Z,4.00
2018-03-08T22:45:06.035Z,4.00
2018-03-08T22:47:33.482Z,4.00
2018-03-08T22:50:01.234Z,4.00
2018-03-08T22:52:28.892Z,4.00
2018-03-08T22:54:56.358Z,4.00
2018-03-08T22:57:23.847Z,4.00
2018-03-08T22:59:51.323Z,4.00
2018-03-08T23:02:18.779Z,4.00
2018-03-08T23:04:46.220Z,4.00
2018-03-08T23:07:13.668Z,4.00
2018-03-08T23:09:41.216Z,4.00
2018-03-08T23:12:08.982Z,4.00
2018-03-08T23:14:37.051Z,4.00
2018-03-08T23:17:04.511Z,4.00
2018-03-08T23:19:32.144Z,4.00
2018-03-08T23:21:59.614Z,4.00
2018-03-08T23:24:27.107Z,3.90
2018-03-08T23:26:54.950Z,3.90
2018-03-08T23:29:22.900Z,3.80
2018-03-08T23:31:50.482Z,3.90
2018-03-08T23:34:18.116Z,3.80
2018-03-08T23:36:45.874Z,3.80
2018-03-08T23:39:13.652Z,3.80
2018-03-08T23:41:41.267Z,3.80
2018-03-08T23:44:08.907Z,3.80
2018-03-08T23:46:36.363Z,3.70
2018-03-08T23:49:03.812Z,3.70
2018-03-08T23:51:31.263Z,3.70
2018-03-08T23:53:58.887Z,3.70
2018-03-08T23:56:26.584Z,3.70
2018-03-08T23:58:54.259Z,3.70
